createdAt,value
2022-11-28T00:00:19.172Z,7.6
2022-11-28T00:01:25.926Z,7.6
2022-11-28T00:03:40.143Z,7.7
2022-11-28T00:04:47.120Z,7.7
2022-11-28T00:05:54.179Z,7.7
2022-11-28T00:07:00.742Z,7.7
2022-11-28T00:08:07.882Z,7.8
2022-11-28T00:09:15.070Z,7.8
2022-11-28T00:10:22.047Z,7.8
2022-11-28T00:11:29.262Z,7.8
2022-11-28T00:12:35.886Z,7.8
2022-11-28T00:13:42.935Z,7.8
2022-11-28T00:14:50.061Z,7.8
2022-11-28T00:15:57.155Z,7.8
2022-11-28T00:17:04.222Z,7.8
2022-11-28T00:18:10.766Z,7.8
2022-11-28T00:19:17.858Z,7.8
2022-11-28T00:20:25.582Z,7.8
2022-11-28T00:21:32.144Z,7.9
2022-11-28T00:22:39.231Z,7.8
2022-11-28T00:24:52.892Z,7.8
2022-11-28T00:26:00.081Z,7.8
2022-11-28T00:27:07.193Z,7.8
2022-11-28T00:28:14.234Z,7.7
2022-11-28T00:29:21.002Z,7.7
2022-11-28T00:30:27.902Z,7.7
2022-11-28T00:31:35.127Z,7.7
2022-11-28T00:32:42.203Z,7.6
2022-11-28T00:33:48.712Z,7.6
2022-11-28T00:34:55.830Z,7.6
2022-11-28T00:36:02.913Z,7.6
2022-11-28T00:37:10.086Z,7.6
2022-11-28T00:38:17.142Z,7.6
2022-11-28T00:39:23.691Z,7.6
2022-11-28T00:40:30.779Z,7.6
2022-11-28T00:41:37.970Z,7.6
2022-11-28T00:42:45.606Z,7.6
2022-11-28T00:44:58.792Z,7.5
2022-11-28T00:46:05.827Z,7.5
2022-11-28T00:47:12.890Z,7.5
2022-11-28T00:48:20.059Z,7.5
2022-11-28T00:49:27.104Z,7.5
2022-11-28T00:50:33.691Z,7.5
2022-11-28T00:51:40.866Z,7.5
2022-11-28T00:52:48.064Z,7.5
2022-11-28T00:53:55.072Z,7.5
2022-11-28T00:55:02.153Z,7.5
2022-11-28T00:56:08.793Z,7.5
2022-11-28T00:57:15.853Z,7.5
2022-11-28T00:58:22.908Z,7.5
2022-11-28T00:59:30.068Z,7.5
2022-11-28T01:00:37.174Z,7.5
2022-11-28T01:01:44.414Z,7.5
2022-11-28T01:02:50.935Z,7.4
2022-11-28T01:03:57.948Z,7.4
2022-11-28T01:05:05.087Z,7.4
2022-11-28T01:06:12.151Z,7.4
2022-11-28T01:07:18.821Z,7.4
2022-11-28T01:08:25.879Z,7.4
2022-11-28T01:09:32.974Z,7.4
2022-11-28T01:10:40.099Z,7.3
2022-11-28T01:11:47.257Z,7.3
2022-11-28T01:12:55.432Z,7.3
2022-11-28T01:14:00.873Z,7.2
2022-11-28T01:15:07.981Z,7.2
2022-11-28T01:16:15.115Z,7.2
2022-11-28T01:17:22.141Z,7.2
2022-11-28T01:19:35.911Z,7.1
2022-11-28T01:20:43.003Z,7.1
2022-11-28T01:21:50.103Z,7.1
2022-11-28T01:22:57.278Z,7.1
2022-11-28T01:24:03.790Z,7.1
2022-11-28T01:26:18.041Z,7
2022-11-28T01:28:32.175Z,6.9
2022-11-28T01:29:38.786Z,6.9
2022-11-28T01:30:45.874Z,6.8
2022-11-28T01:31:53.085Z,6.9
2022-11-28T01:33:00.120Z,6.8
2022-11-28T01:34:07.233Z,6.8
2022-11-28T01:35:13.882Z,6.7
2022-11-28T01:36:20.909Z,6.7
2022-11-28T01:37:27.973Z,6.7
2022-11-28T01:40:48.789Z,6.6
2022-11-28T01:41:55.931Z,6.5
2022-11-28T01:43:03.512Z,6.6
2022-11-28T01:44:10.112Z,6.6
2022-11-28T01:45:16.663Z,6.5
2022-11-28T01:46:24.443Z,6.5
2022-11-28T01:47:30.881Z,6.4
2022-11-28T01:48:38.048Z,6.4
2022-11-28T01:49:45.145Z,6.4
2022-11-28T01:50:51.692Z,6.4
2022-11-28T01:51:58.809Z,6.4
2022-11-28T01:53:05.911Z,6.4
2022-11-28T01:54:12.988Z,6.5
2022-11-28T01:55:20.161Z,6.5
2022-11-28T01:56:26.747Z,6.5
2022-11-28T01:57:33.845Z,6.5
2022-11-28T01:58:40.910Z,6.5
2022-11-28T01:59:48.162Z,6.5
2022-11-28T02:00:55.295Z,6.5
2022-11-28T02:02:01.784Z,6.5
2022-11-28T02:03:08.812Z,6.5
2022-11-28T02:04:15.943Z,6.5
2022-11-28T02:05:23.005Z,6.5
2022-11-28T02:06:30.163Z,6.5
2022-11-28T02:07:36.862Z,6.5
2022-11-28T02:08:43.812Z,6.5
2022-11-28T02:09:50.920Z,6.5
2022-11-28T02:10:58.140Z,6.5
2022-11-28T02:12:05.141Z,6.5
2022-11-28T02:13:11.731Z,6.5
2022-11-28T02:14:18.803Z,6.6
2022-11-28T02:15:25.962Z,6.5
2022-11-28T02:16:33.128Z,6.5
2022-11-28T02:17:40.148Z,6.5
2022-11-28T02:18:50.396Z,6.6
2022-11-28T02:19:53.844Z,6.5
2022-11-28T02:21:00.920Z,6.5
2022-11-28T02:22:08.088Z,6.6
2022-11-28T02:23:15.157Z,6.5
2022-11-28T02:24:22.761Z,6.5
2022-11-28T02:25:28.887Z,6.5
2022-11-28T02:26:36.000Z,6.4
2022-11-28T02:27:43.026Z,6.3
2022-11-28T02:28:50.185Z,6.3
2022-11-28T02:29:56.773Z,6.3
2022-11-28T02:32:11.002Z,6.2
2022-11-28T02:33:18.103Z,6.2
2022-11-28T02:34:25.184Z,6.2
2022-11-28T02:35:31.761Z,6.2
2022-11-28T02:36:38.865Z,6.1
2022-11-28T02:37:46.022Z,6.1
2022-11-28T02:38:53.044Z,6.1
2022-11-28T02:40:00.223Z,6.1
2022-11-28T02:41:06.803Z,6
2022-11-28T02:42:13.965Z,6
2022-11-28T02:43:20.952Z,6
2022-11-28T02:44:28.040Z,6
2022-11-28T02:45:35.199Z,6.1
2022-11-28T02:47:49.019Z,6.2
2022-11-28T02:48:56.011Z,6.1
2022-11-28T02:50:03.610Z,6.1
2022-11-28T02:51:10.252Z,6.2
2022-11-28T02:52:16.851Z,6.2
2022-11-28T02:53:23.888Z,6.2
2022-11-28T02:54:30.978Z,6.2
2022-11-28T02:55:38.132Z,6.3
2022-11-28T02:56:45.206Z,6.3
2022-11-28T02:57:51.762Z,6.4
2022-11-28T02:58:58.931Z,6.4
2022-11-28T03:00:06.031Z,6.3
2022-11-28T03:01:13.253Z,6.3
2022-11-28T03:02:19.828Z,6.4
2022-11-28T03:03:26.788Z,6.4
2022-11-28T03:04:33.869Z,6.3
2022-11-28T03:05:41.535Z,6.4
2022-11-28T03:06:48.117Z,6.3
2022-11-28T03:07:55.336Z,6.3
2022-11-28T03:09:01.792Z,6.3
2022-11-28T03:10:08.939Z,6.2
2022-11-28T03:11:16.076Z,6.2
2022-11-28T03:12:23.100Z,6.2
2022-11-28T03:13:30.221Z,6.2
2022-11-28T03:14:36.887Z,6.1
2022-11-28T03:15:43.918Z,6.1
2022-11-28T03:16:51.094Z,6.1
2022-11-28T03:17:58.119Z,6.2
2022-11-28T03:19:05.234Z,6.2
2022-11-28T03:20:11.818Z,6.1
2022-11-28T03:21:18.940Z,6.1
2022-11-28T03:22:26.011Z,6.1
2022-11-28T03:23:33.158Z,6
2022-11-28T03:24:40.060Z,6
2022-11-28T03:25:46.860Z,6
2022-11-28T03:26:53.946Z,6
2022-11-28T03:28:01.031Z,6
2022-11-28T03:29:08.191Z,6
2022-11-28T03:30:14.741Z,6
2022-11-28T03:31:21.874Z,5.9
2022-11-28T03:32:28.973Z,5.9
2022-11-28T03:33:36.096Z,5.9
2022-11-28T03:35:49.751Z,5.8
2022-11-28T03:36:56.916Z,5.8
2022-11-28T03:38:03.932Z,5.8
2022-11-28T03:39:11.072Z,5.8
2022-11-28T03:40:18.160Z,5.9
2022-11-28T03:41:24.772Z,5.8
2022-11-28T03:42:31.862Z,5.8
2022-11-28T03:43:38.954Z,5.8
2022-11-28T03:44:46.121Z,5.9
2022-11-28T03:45:53.232Z,5.8
2022-11-28T03:46:59.819Z,5.8
2022-11-28T03:48:06.915Z,5.8
2022-11-28T03:49:13.949Z,5.8
2022-11-28T03:50:21.080Z,5.8
2022-11-28T03:51:28.191Z,5.8
2022-11-28T03:52:34.759Z,5.8
2022-11-28T03:53:42.378Z,5.8
2022-11-28T03:54:49.033Z,5.8
2022-11-28T03:55:56.121Z,5.8
2022-11-28T03:57:03.221Z,5.7
2022-11-28T03:58:09.892Z,5.7
2022-11-28T03:59:16.871Z,5.7
2022-11-28T04:00:24.013Z,5.7
2022-11-28T04:01:31.196Z,5.7
2022-11-28T04:02:38.290Z,5.7
2022-11-28T04:03:44.926Z,5.7
2022-11-28T04:04:51.927Z,5.7
2022-11-28T04:05:58.987Z,5.7
2022-11-28T04:07:06.134Z,5.7
2022-11-28T04:08:13.181Z,5.7
2022-11-28T04:09:19.779Z,5.7
2022-11-28T04:10:26.909Z,5.7
2022-11-28T04:11:33.979Z,5.7
2022-11-28T04:12:41.126Z,5.7
2022-11-28T04:13:48.244Z,5.8
2022-11-28T04:16:01.961Z,5.7
2022-11-28T04:17:09.082Z,5.7
2022-11-28T04:18:16.153Z,5.8
2022-11-28T04:19:23.181Z,5.8
2022-11-28T04:20:29.813Z,5.8
2022-11-28T04:21:36.900Z,5.8
2022-11-28T04:22:44.029Z,5.8
2022-11-28T04:23:51.213Z,5.8
2022-11-28T04:24:58.243Z,5.8
2022-11-28T04:26:04.833Z,5.8
2022-11-28T04:27:11.953Z,5.8
2022-11-28T04:28:19.539Z,5.8
2022-11-28T04:29:26.186Z,5.8
2022-11-28T04:30:33.222Z,5.8
2022-11-28T04:31:39.856Z,5.8
2022-11-28T04:32:46.921Z,5.8
2022-11-28T04:33:54.007Z,5.8
2022-11-28T04:35:01.099Z,5.8
2022-11-28T04:36:08.262Z,5.7
2022-11-28T04:37:14.894Z,5.7
2022-11-28T04:39:29.042Z,5.7
2022-11-28T04:40:36.164Z,5.7
2022-11-28T04:41:43.241Z,5.7
2022-11-28T04:42:52.749Z,5.7
2022-11-28T04:43:56.941Z,5.7
2022-11-28T04:45:04.032Z,5.7
2022-11-28T04:46:11.178Z,5.7
2022-11-28T04:47:18.251Z,5.7
2022-11-28T04:48:27.624Z,5.7
2022-11-28T04:49:31.942Z,5.7
2022-11-28T04:50:39.089Z,5.7
2022-11-28T04:51:46.199Z,5.6
2022-11-28T04:52:55.460Z,5.6
2022-11-28T04:53:59.862Z,5.6
2022-11-28T04:55:06.944Z,5.6
2022-11-28T04:56:14.017Z,5.6
2022-11-28T04:57:21.752Z,5.6
2022-11-28T04:58:27.784Z,5.6
2022-11-28T04:59:34.851Z,5.5
2022-11-28T05:00:42.097Z,5.5
2022-11-28T05:01:49.144Z,5.5
2022-11-28T05:02:56.282Z,5.5
2022-11-28T05:04:02.748Z,5.4
2022-11-28T05:05:09.872Z,5.5
2022-11-28T05:06:16.974Z,5.5
2022-11-28T05:07:24.213Z,5.5
2022-11-28T05:08:31.190Z,5.5
2022-11-28T05:09:37.810Z,5.5
2022-11-28T05:10:44.892Z,5.5
2022-11-28T05:11:52.001Z,5.5
2022-11-28T05:12:59.161Z,5.5
2022-11-28T05:14:06.219Z,5.5
2022-11-28T05:15:12.729Z,5.5
2022-11-28T05:16:19.979Z,5.5
2022-11-28T05:17:26.991Z,5.5
2022-11-28T05:18:34.074Z,5.5
2022-11-28T05:19:41.161Z,5.5
2022-11-28T05:20:47.778Z,5.5
2022-11-28T05:21:54.991Z,5.5
2022-11-28T05:23:01.956Z,5.5
2022-11-28T05:24:09.087Z,5.4
2022-11-28T05:25:16.171Z,5.5
2022-11-28T05:26:22.744Z,5.5
2022-11-28T05:27:29.901Z,5.5
2022-11-28T05:28:37.021Z,5.5
2022-11-28T05:29:49.411Z,5.4
2022-11-28T05:30:51.202Z,5.4
2022-11-28T05:31:57.971Z,5.5
2022-11-28T05:33:04.912Z,5.4
2022-11-28T05:34:11.967Z,5.4
2022-11-28T05:35:19.107Z,5.4
2022-11-28T05:36:26.232Z,5.4
2022-11-28T05:37:32.789Z,5.4
2022-11-28T05:38:39.970Z,5.4
2022-11-28T05:39:47.063Z,5.4
2022-11-28T05:40:54.163Z,5.4
2022-11-28T05:44:14.952Z,5.5
2022-11-28T05:45:22.195Z,5.4
2022-11-28T05:46:29.139Z,5.4
2022-11-28T05:47:36.191Z,5.4
2022-11-28T05:48:42.804Z,5.4
2022-11-28T05:49:49.902Z,5.5
2022-11-28T05:52:04.181Z,5.5
2022-11-28T05:53:11.221Z,5.5
2022-11-28T05:54:17.883Z,5.4
2022-11-28T05:55:24.942Z,5.4
2022-11-28T05:56:32.022Z,5.4
2022-11-28T05:57:39.130Z,5.4
2022-11-28T05:58:46.302Z,5.5
2022-11-28T05:59:52.795Z,5.4
2022-11-28T06:01:00.762Z,5.4
2022-11-28T06:02:07.140Z,5.4
2022-11-28T06:03:14.141Z,5.4
2022-11-28T06:04:20.854Z,5.4
2022-11-28T06:05:42.044Z,5.4
2022-11-28T06:06:35.037Z,5.4
2022-11-28T06:07:42.053Z,5.4
2022-11-28T06:08:49.172Z,5.4
2022-11-28T06:09:55.737Z,5.4
2022-11-28T06:11:02.831Z,5.4
2022-11-28T06:12:10.032Z,5.4
2022-11-28T06:13:17.142Z,5.3
2022-11-28T06:14:24.183Z,5.3
2022-11-28T06:15:33.724Z,5.3
2022-11-28T06:16:37.862Z,5.3
2022-11-28T06:17:44.962Z,5.4
2022-11-28T06:18:52.026Z,5.4
2022-11-28T06:19:59.211Z,5.3
2022-11-28T06:21:05.782Z,5.4
2022-11-28T06:22:12.892Z,5.4
2022-11-28T06:23:20.012Z,5.4
2022-11-28T06:24:27.084Z,5.4
2022-11-28T06:25:34.177Z,5.4
2022-11-28T06:26:40.722Z,5.4
2022-11-28T06:27:47.864Z,5.4
2022-11-28T06:28:55.004Z,5.5
2022-11-28T06:30:02.099Z,5.4
2022-11-28T06:31:09.219Z,5.4
2022-11-28T06:33:22.924Z,5.5
2022-11-28T06:34:29.980Z,5.5
2022-11-28T06:35:37.088Z,5.5
2022-11-28T06:36:44.283Z,5.5
2022-11-28T06:37:50.762Z,5.6
2022-11-28T06:38:57.892Z,5.6
2022-11-28T06:40:04.998Z,5.6
2022-11-28T06:41:12.121Z,5.6
2022-11-28T06:42:19.262Z,5.6
2022-11-28T06:43:25.783Z,5.6
2022-11-28T06:44:32.911Z,5.7
2022-11-28T06:46:47.117Z,5.6
2022-11-28T06:47:54.256Z,5.6
2022-11-28T06:49:00.751Z,5.6
2022-11-28T06:50:07.924Z,5.6
2022-11-28T06:51:15.039Z,5.6
2022-11-28T06:52:22.139Z,5.6
2022-11-28T06:53:31.410Z,5.6
2022-11-28T06:54:35.822Z,5.6
2022-11-28T06:55:43.005Z,5.6
2022-11-28T06:56:50.008Z,5.6
2022-11-28T06:57:57.190Z,5.6
2022-11-28T06:59:04.285Z,5.5
2022-11-28T07:00:10.781Z,5.5
2022-11-28T07:01:18.072Z,5.5
2022-11-28T07:02:25.192Z,5.5
2022-11-28T07:03:32.112Z,5.5
2022-11-28T07:04:39.330Z,5.5
2022-11-28T07:05:45.835Z,5.5
2022-11-28T07:06:52.879Z,5.5
2022-11-28T07:08:00.171Z,5.5
2022-11-28T07:09:07.280Z,5.5
2022-11-28T07:10:14.247Z,5.5
2022-11-28T07:12:27.993Z,5.4
2022-11-28T07:14:42.125Z,5.4
2022-11-28T07:15:49.285Z,5.4
2022-11-28T07:16:55.907Z,5.4
2022-11-28T07:18:02.923Z,5.4
2022-11-28T07:19:10.084Z,5.4
2022-11-28T07:20:17.172Z,5.4
2022-11-28T07:21:24.309Z,5.4
2022-11-28T07:22:30.865Z,5.4
2022-11-28T07:23:37.921Z,5.4
2022-11-28T07:24:45.077Z,5.4
2022-11-28T07:25:52.142Z,5.3
2022-11-28T07:26:59.285Z,5.4
2022-11-28T07:28:05.899Z,5.4
2022-11-28T07:29:12.990Z,5.4
2022-11-28T07:30:20.085Z,5.4
2022-11-28T07:31:27.216Z,5.4
2022-11-28T07:32:34.329Z,5.4
2022-11-28T07:33:40.832Z,5.4
2022-11-28T07:34:50.136Z,5.5
2022-11-28T07:35:55.113Z,5.5
2022-11-28T07:37:02.218Z,5.4
2022-11-28T07:38:08.778Z,5.4
2022-11-28T07:39:15.917Z,5.4
2022-11-28T07:40:22.966Z,5.5
2022-11-28T07:41:30.095Z,5.4
2022-11-28T07:42:37.229Z,5.4
2022-11-28T07:43:43.761Z,5.4
2022-11-28T07:44:50.871Z,5.4
2022-11-28T07:46:01.012Z,5.4
2022-11-28T07:47:05.292Z,5.4
2022-11-28T07:48:12.156Z,5.4
2022-11-28T07:50:25.870Z,5.4
2022-11-28T07:51:32.998Z,5.4
2022-11-28T07:52:40.127Z,5.4
2022-11-28T07:53:47.211Z,5.3
2022-11-28T07:56:00.873Z,5.3
2022-11-28T07:57:12.729Z,5.3
2022-11-28T07:58:15.143Z,5.3
2022-11-28T07:59:22.165Z,5.3
2022-11-28T08:00:28.784Z,5.2
2022-11-28T08:01:35.987Z,5.2
2022-11-28T08:02:43.012Z,5.2
2022-11-28T08:03:50.123Z,5.2
2022-11-28T08:04:57.250Z,5.2
2022-11-28T08:06:03.766Z,5.2
2022-11-28T08:07:10.925Z,5.2
2022-11-28T08:08:18.491Z,5.2
2022-11-28T08:09:25.133Z,5.2
2022-11-28T08:10:32.231Z,5.1
2022-11-28T08:11:38.763Z,5.2
2022-11-28T08:12:45.973Z,5.2
2022-11-28T08:13:56.340Z,5.1
2022-11-28T08:15:00.130Z,5.1
2022-11-28T08:16:07.349Z,5.1
2022-11-28T08:17:13.893Z,5.2
2022-11-28T08:18:20.917Z,5.1
2022-11-28T08:19:31.886Z,5.2
2022-11-28T08:20:35.130Z,5.1
2022-11-28T08:21:42.223Z,5.1
2022-11-28T08:22:48.925Z,5.1
2022-11-28T08:23:55.999Z,5.1
2022-11-28T08:25:03.012Z,5.1
2022-11-28T08:26:10.193Z,5.1
2022-11-28T08:27:17.329Z,5.1
2022-11-28T08:28:23.826Z,5.1
2022-11-28T08:29:30.956Z,5.1
2022-11-28T08:30:38.079Z,5.1
2022-11-28T08:31:45.140Z,5.2
2022-11-28T08:32:52.213Z,5.1
2022-11-28T08:33:58.921Z,5.1
2022-11-28T08:35:05.954Z,5.1
2022-11-28T08:37:20.214Z,5.1
2022-11-28T08:38:27.319Z,5.1
2022-11-28T08:40:40.960Z,5.2
2022-11-28T08:41:48.134Z,5.2
2022-11-28T08:42:55.691Z,5.2
2022-11-28T08:44:02.232Z,5.2
2022-11-28T08:45:08.842Z,5.2
2022-11-28T08:46:15.991Z,5.2
2022-11-28T08:47:23.080Z,5.2
2022-11-28T08:48:30.132Z,5.2
2022-11-28T08:49:36.796Z,5.2
2022-11-28T08:50:46.789Z,5.2
2022-11-28T08:51:50.967Z,5.2
2022-11-28T08:54:05.170Z,5.2
2022-11-28T08:55:11.723Z,5.2
2022-11-28T08:56:18.856Z,5.2
2022-11-28T08:57:26.023Z,5.2
2022-11-28T08:58:33.084Z,5.3
2022-11-28T08:59:40.187Z,5.3
2022-11-28T09:00:46.773Z,5.3
2022-11-28T09:01:54.003Z,5.3
2022-11-28T09:03:00.961Z,5.3
2022-11-28T09:04:08.226Z,5.3
2022-11-28T09:05:15.203Z,5.3
2022-11-28T09:06:21.764Z,5.3
2022-11-28T09:07:28.947Z,5.3
2022-11-28T09:08:36.003Z,5.3
2022-11-28T09:09:43.083Z,5.3
2022-11-28T09:10:50.190Z,5.3
2022-11-28T09:11:57.383Z,5.3
2022-11-28T09:13:03.932Z,5.3
2022-11-28T09:14:11.002Z,5.3
2022-11-28T09:15:18.111Z,5.3
2022-11-28T09:16:25.804Z,5.3
2022-11-28T09:18:39.003Z,5.3
2022-11-28T09:19:46.075Z,5.3
2022-11-28T09:20:53.062Z,5.3
2022-11-28T09:22:00.214Z,5.3
2022-11-28T09:23:06.788Z,5.3
2022-11-28T09:24:13.951Z,5.3
2022-11-28T09:25:21.002Z,5.3
2022-11-28T09:26:28.107Z,5.3
2022-11-28T09:27:35.262Z,5.3
2022-11-28T09:28:41.811Z,5.4
2022-11-28T09:29:48.933Z,5.4
2022-11-28T09:30:56.083Z,5.4
2022-11-28T09:32:03.130Z,5.4
2022-11-28T09:33:10.369Z,5.4
2022-11-28T09:34:16.809Z,5.4
2022-11-28T09:35:23.943Z,5.4
2022-11-28T09:36:31.003Z,5.4
2022-11-28T09:37:38.155Z,5.4
2022-11-28T09:38:45.254Z,5.4
2022-11-28T09:40:12.002Z,5.5
2022-11-28T09:40:58.972Z,5.5
2022-11-28T09:42:06.114Z,5.5
2022-11-28T09:43:13.149Z,5.6
2022-11-28T09:44:20.352Z,5.6
2022-11-28T09:45:26.820Z,5.6
2022-11-28T09:46:34.008Z,5.6
2022-11-28T09:47:41.103Z,5.6
2022-11-28T09:48:48.280Z,5.6
2022-11-28T09:49:55.244Z,5.6
2022-11-28T09:51:01.797Z,5.6
2022-11-28T09:52:09.051Z,5.6
2022-11-28T09:53:16.063Z,5.6
2022-11-28T09:54:23.198Z,5.6
2022-11-28T09:55:30.250Z,5.6
2022-11-28T09:57:43.985Z,5.6
2022-11-28T09:59:58.183Z,5.6
2022-11-28T10:01:05.283Z,5.6
2022-11-28T10:02:11.890Z,5.6
2022-11-28T10:03:19.111Z,5.6
2022-11-28T10:04:26.204Z,5.6
2022-11-28T10:05:33.151Z,5.7
2022-11-28T10:06:40.252Z,5.6
2022-11-28T10:08:54.003Z,5.6
2022-11-28T10:10:01.120Z,5.6
2022-11-28T10:11:08.241Z,5.7
2022-11-28T10:12:15.292Z,5.6
2022-11-28T10:13:21.860Z,5.7
2022-11-28T10:14:29.003Z,5.7
2022-11-28T10:15:36.632Z,5.7
2022-11-28T10:16:43.267Z,5.7
2022-11-28T10:17:50.332Z,5.7
2022-11-28T10:18:56.890Z,5.7
2022-11-28T10:20:04.079Z,5.7
2022-11-28T10:21:11.182Z,5.7
2022-11-28T10:22:18.212Z,5.7
2022-11-28T10:23:25.335Z,5.7
2022-11-28T10:24:31.847Z,5.7
2022-11-28T10:25:39.017Z,5.7
2022-11-28T10:26:46.103Z,5.7
2022-11-28T10:27:53.211Z,5.7
2022-11-28T10:28:59.784Z,5.7
2022-11-28T10:30:06.914Z,5.7
2022-11-28T10:31:14.181Z,5.7
2022-11-28T10:32:21.140Z,5.7
2022-11-28T10:33:28.198Z,5.7
2022-11-28T10:34:34.786Z,5.8
2022-11-28T10:35:41.891Z,5.8
2022-11-28T10:36:49.076Z,5.8
2022-11-28T10:37:56.169Z,5.8
2022-11-28T10:39:07.289Z,5.8
2022-11-28T10:41:16.943Z,5.8
2022-11-28T10:42:24.027Z,5.8
2022-11-28T10:43:31.106Z,5.8
2022-11-28T10:44:38.738Z,5.8
2022-11-28T10:45:44.907Z,5.7
2022-11-28T10:46:51.903Z,5.7
2022-11-28T10:48:01.291Z,5.7
2022-11-28T10:49:06.132Z,5.8
2022-11-28T10:50:13.193Z,5.7
2022-11-28T10:51:19.822Z,5.7
2022-11-28T10:52:26.941Z,5.7
2022-11-28T10:53:34.010Z,5.8
2022-11-28T10:54:41.227Z,5.8
2022-11-28T10:55:48.244Z,5.8
2022-11-28T10:56:54.841Z,5.8
2022-11-28T10:58:02.071Z,5.8
2022-11-28T10:59:09.041Z,5.8
2022-11-28T11:01:23.276Z,5.9
2022-11-28T11:02:29.870Z,5.9
2022-11-28T11:03:36.934Z,5.9
2022-11-28T11:04:44.064Z,5.9
2022-11-28T11:05:51.108Z,5.9
2022-11-28T11:07:08.829Z,5.9
2022-11-28T11:08:04.931Z,6
2022-11-28T11:09:12.015Z,6
2022-11-28T11:10:19.082Z,6
2022-11-28T11:11:26.595Z,6
2022-11-28T11:12:33.219Z,6
2022-11-28T11:13:39.859Z,6
2022-11-28T11:14:46.964Z,6
2022-11-28T11:15:54.224Z,6
2022-11-28T11:17:01.142Z,6.1
2022-11-28T11:18:08.296Z,6.1
2022-11-28T11:19:15.372Z,6.1
2022-11-28T11:20:21.958Z,6
2022-11-28T11:22:36.222Z,6
2022-11-28T11:23:43.288Z,6
2022-11-28T11:24:49.883Z,6
2022-11-28T11:25:57.030Z,6
2022-11-28T11:27:04.057Z,6.1
2022-11-28T11:28:11.208Z,6.1
2022-11-28T11:29:18.314Z,6.1
2022-11-28T11:30:26.062Z,6.1
2022-11-28T11:31:32.035Z,6.1
2022-11-28T11:32:39.108Z,6.1
2022-11-28T11:33:46.173Z,6.1
2022-11-28T11:34:53.303Z,6.1
2022-11-28T11:37:07.040Z,6.1
2022-11-28T11:38:14.087Z,6.1
2022-11-28T11:39:21.209Z,6.1
2022-11-28T11:40:28.320Z,6.1
2022-11-28T11:41:34.874Z,6.1
2022-11-28T11:42:41.963Z,6.1
2022-11-28T11:43:49.132Z,6.1
2022-11-28T11:44:56.211Z,6.1
2022-11-28T11:46:03.303Z,6.1
2022-11-28T11:47:10.024Z,6.2
2022-11-28T11:48:16.980Z,6.2
2022-11-28T11:49:24.079Z,6.2
2022-11-28T11:50:31.201Z,6.2
2022-11-28T11:51:39.484Z,6.2
2022-11-28T11:52:45.030Z,6.2
2022-11-28T11:53:52.061Z,6.2
2022-11-28T11:54:59.107Z,6.2
2022-11-28T11:56:06.276Z,6.2
2022-11-28T11:57:31.873Z,6.2
2022-11-28T11:58:19.933Z,6.2
2022-11-28T11:59:27.014Z,6.2
2022-11-28T12:00:34.239Z,6.3
2022-11-28T12:01:41.246Z,6.3
2022-11-28T12:05:02.054Z,6.3
2022-11-28T12:06:14.868Z,6.3
2022-11-28T12:07:16.394Z,6.3
2022-11-28T12:08:22.853Z,6.3
2022-11-28T12:09:29.911Z,6.3
2022-11-28T12:10:36.984Z,6.3
2022-11-28T12:11:46.909Z,6.3
2022-11-28T12:12:51.804Z,6.3
2022-11-28T12:13:57.819Z,6.3
2022-11-28T12:15:05.046Z,6.3
2022-11-28T12:16:12.114Z,6.3
2022-11-28T12:17:40.528Z,6.4
2022-11-28T12:18:26.450Z,6.3
2022-11-28T12:19:32.792Z,6.3
2022-11-28T12:20:39.974Z,6.3
2022-11-28T12:21:47.037Z,6.3
2022-11-28T12:22:55.853Z,6.3
2022-11-28T12:24:01.255Z,6.2
2022-11-28T12:25:07.873Z,6.2
2022-11-28T12:26:14.955Z,6.2
2022-11-28T12:27:22.007Z,6.2
2022-11-28T12:28:29.225Z,6.2
2022-11-28T12:29:36.268Z,6.2
2022-11-28T12:30:44.807Z,6.2
2022-11-28T12:31:49.954Z,6.2
2022-11-28T12:32:57.114Z,6.2
2022-11-28T12:34:04.159Z,6.2
2022-11-28T12:35:11.233Z,6.2
2022-11-28T12:36:17.852Z,6.2
2022-11-28T12:37:33.033Z,6.2
2022-11-28T12:38:32.064Z,6.2
2022-11-28T12:39:39.230Z,6.2
2022-11-28T12:40:46.270Z,6.3
2022-11-28T12:41:52.846Z,6.3
2022-11-28T12:43:00.091Z,6.3
2022-11-28T12:45:14.219Z,6.3
2022-11-28T12:46:21.282Z,6.3
2022-11-28T12:47:27.856Z,6.3
2022-11-28T12:48:35.090Z,6.3
2022-11-28T12:49:42.705Z,6.3
2022-11-28T12:50:49.248Z,6.3
2022-11-28T12:51:56.371Z,6.3
2022-11-28T12:53:02.908Z,6.3
2022-11-28T12:54:10.073Z,6.3
2022-11-28T12:55:17.169Z,6.3
2022-11-28T12:56:24.264Z,6.2
2022-11-28T12:57:31.333Z,6.2
2022-11-28T12:58:37.874Z,6.2
2022-11-28T12:59:45.219Z,6.2
2022-11-28T13:00:52.086Z,6.2
2022-11-28T13:01:59.216Z,6.2
2022-11-28T13:03:06.483Z,6.2
2022-11-28T13:05:20.041Z,6.2
2022-11-28T13:06:27.214Z,6.2
2022-11-28T13:07:34.237Z,6.2
2022-11-28T13:08:47.922Z,6.2
2022-11-28T13:09:47.951Z,6.2
2022-11-28T13:10:55.073Z,6.2
2022-11-28T13:12:02.146Z,6.2
2022-11-28T13:13:09.255Z,6.2
2022-11-28T13:14:15.798Z,6.1
2022-11-28T13:15:22.925Z,6.2
2022-11-28T13:16:30.115Z,6.1
2022-11-28T13:17:37.141Z,6.1
2022-11-28T13:18:44.219Z,6
2022-11-28T13:19:50.845Z,6
2022-11-28T13:20:58.013Z,6
2022-11-28T13:22:05.116Z,6
2022-11-28T13:23:12.138Z,6
2022-11-28T13:24:19.272Z,6
2022-11-28T13:26:33.493Z,6
2022-11-28T13:27:40.199Z,6
2022-11-28T13:28:47.121Z,6
2022-11-28T13:29:54.219Z,6
2022-11-28T13:31:00.882Z,6
2022-11-28T13:32:07.962Z,6
2022-11-28T13:33:15.145Z,5.9
2022-11-28T13:34:22.141Z,5.9
2022-11-28T13:35:29.375Z,6
2022-11-28T13:39:08.226Z,6
2022-11-28T13:39:57.178Z,6
2022-11-28T13:41:04.772Z,6
2022-11-28T13:42:43.975Z,6
2022-11-28T13:43:19.057Z,6
2022-11-28T13:44:25.061Z,6
2022-11-28T13:45:32.582Z,6
2022-11-28T13:46:39.439Z,6
2022-11-28T13:47:45.976Z,6
2022-11-28T13:49:15.252Z,6
2022-11-28T13:50:00.149Z,6
2022-11-28T13:51:10.626Z,6
2022-11-28T13:52:14.255Z,6
2022-11-28T13:53:20.853Z,6
2022-11-28T13:54:28.060Z,6
2022-11-28T13:55:35.049Z,6
2022-11-28T13:56:42.216Z,6
2022-11-28T13:57:49.334Z,6.1
2022-11-28T13:58:55.840Z,6.1
2022-11-28T14:00:03.040Z,6.1
2022-11-28T14:01:10.092Z,6.1
2022-11-28T14:02:17.290Z,6.1
2022-11-28T14:03:24.580Z,6.1
2022-11-28T14:04:30.895Z,6.2
2022-11-28T14:05:37.969Z,6.2
2022-11-28T14:07:52.291Z,6.3
2022-11-28T14:08:59.283Z,6.2
2022-11-28T14:10:05.900Z,6.3
2022-11-28T14:12:20.145Z,6.3
2022-11-28T14:13:27.392Z,6.3
2022-11-28T14:14:34.303Z,6.3
2022-11-28T14:15:40.931Z,6.3
2022-11-28T14:16:51.723Z,6.3
2022-11-28T14:17:55.201Z,6.3
2022-11-28T14:19:02.232Z,6.3
2022-11-28T14:20:09.267Z,6.3
2022-11-28T14:21:15.939Z,6.3
2022-11-28T14:22:23.018Z,6.3
2022-11-28T14:23:30.095Z,6.3
2022-11-28T14:24:37.774Z,6.3
2022-11-28T14:25:43.814Z,6.4
2022-11-28T14:26:50.889Z,6.3
2022-11-28T14:27:58.041Z,6.3
2022-11-28T14:29:05.108Z,6.3
2022-11-28T14:30:12.224Z,6.3
2022-11-28T14:31:19.404Z,6.3
2022-11-28T14:33:33.051Z,6.3
2022-11-28T14:34:40.164Z,6.3
2022-11-28T14:35:47.218Z,6.3
2022-11-28T14:36:54.301Z,6.3
2022-11-28T14:38:00.918Z,6.3
2022-11-28T14:39:08.077Z,6.3
2022-11-28T14:40:15.232Z,6.3
2022-11-28T14:41:22.383Z,6.3
2022-11-28T14:42:58.925Z,6.2
2022-11-28T14:43:35.927Z,6.2
2022-11-28T14:44:43.050Z,6.2
2022-11-28T14:45:50.202Z,6.1
2022-11-28T14:46:57.352Z,6.1
2022-11-28T14:49:11.084Z,6.1
2022-11-28T14:50:18.129Z,6
2022-11-28T14:51:25.236Z,6
2022-11-28T14:52:39.513Z,6
2022-11-28T14:53:38.823Z,6
2022-11-28T14:54:46.315Z,6
2022-11-28T14:55:53.079Z,5.9
2022-11-28T14:57:00.429Z,5.9
2022-11-28T14:58:07.283Z,5.8
2022-11-28T14:59:13.981Z,5.8
2022-11-28T15:00:20.956Z,5.8
2022-11-28T15:01:28.189Z,5.8
2022-11-28T15:02:35.295Z,5.7
2022-11-28T15:03:42.223Z,5.6
2022-11-28T15:04:48.982Z,5.6
2022-11-28T15:05:57.074Z,5.6
2022-11-28T15:07:03.071Z,5.6
2022-11-28T15:08:10.287Z,5.6
2022-11-28T15:09:17.969Z,5.5
2022-11-28T15:10:23.910Z,5.5
2022-11-28T15:11:31.106Z,5.4
2022-11-28T15:12:38.052Z,5.4
2022-11-28T15:13:45.239Z,5.4
2022-11-28T15:15:58.979Z,5.3
2022-11-28T15:17:06.073Z,5.3
2022-11-28T15:18:13.080Z,5.3
2022-11-28T15:19:20.260Z,5.3
2022-11-28T15:20:27.406Z,5.2
2022-11-28T15:21:33.979Z,5.2
2022-11-28T15:22:41.038Z,5.1
2022-11-28T15:23:48.185Z,5.1
2022-11-28T15:24:55.345Z,5.1
2022-11-28T15:26:02.313Z,5.1
2022-11-28T15:27:09.025Z,5.1
2022-11-28T15:28:16.095Z,5.1
2022-11-28T15:30:30.170Z,5
2022-11-28T15:31:37.381Z,5
2022-11-28T15:32:44.004Z,4.9
2022-11-28T15:33:51.479Z,4.9
2022-11-28T15:34:58.142Z,4.9
2022-11-28T15:36:05.255Z,4.9
2022-11-28T15:37:12.336Z,4.9
2022-11-28T15:38:18.912Z,4.8
2022-11-28T15:39:26.047Z,4.8
2022-11-28T15:40:33.122Z,4.7
2022-11-28T15:41:40.445Z,4.7
2022-11-28T15:42:47.397Z,4.7
2022-11-28T15:43:53.985Z,4.7
2022-11-28T15:45:01.034Z,4.7
2022-11-28T15:46:08.128Z,4.6
2022-11-28T15:47:15.848Z,4.6
2022-11-28T15:48:22.280Z,4.6
2022-11-28T15:49:28.926Z,4.5
2022-11-28T15:50:36.200Z,4.5
2022-11-28T15:51:43.211Z,4.5
2022-11-28T15:52:50.432Z,4.4
2022-11-28T15:53:56.881Z,4.4
2022-11-28T15:55:04.059Z,4.4
2022-11-28T15:56:11.065Z,4.3
2022-11-28T15:57:18.259Z,4.3
2022-11-28T15:58:25.297Z,4.3
2022-11-28T15:59:31.910Z,4.3
2022-11-28T16:01:46.391Z,4.3
2022-11-28T16:02:56.167Z,4.3
2022-11-28T16:04:00.496Z,4.2
2022-11-28T16:05:07.095Z,4.2
2022-11-28T16:06:14.209Z,4.2
2022-11-28T16:07:21.069Z,4.1
2022-11-28T16:08:28.384Z,4.1
2022-11-28T16:09:35.425Z,4.1
2022-11-28T16:11:49.146Z,4.1
2022-11-28T16:12:55.999Z,4.1
2022-11-28T16:14:03.415Z,4
2022-11-28T16:15:10.246Z,4
2022-11-28T16:16:17.054Z,4
2022-11-28T16:17:24.185Z,4
2022-11-28T16:19:38.483Z,3.9
2022-11-28T16:20:45.618Z,3.9
2022-11-28T16:21:52.027Z,3.9